sensor_id;sensor_type;location;lat;lon;timestamp;pressure;altitude;pressure_sealevel;temperature;humidity
19795;BME280;10057;59.402;17.866;2023-02-01T00:02:13;98882.75;;;-2.92;67.20
19795;BME280;10057;59.402;17.866;2023-02-01T00:04:40;98880.97;;;-2.88;67.15
19795;BME280;10057;59.402;17.866;2023-02-01T00:07:07;98873.16;;;-2.83;67.42
19795;BME280;10057;59.402;17.866;2023-02-01T00:09:33;98874.81;;;-2.79;66.84
19795;BME280;10057;59.402;17.866;2023-02-01T00:12:00;98877.50;;;-2.86;66.44
19795;BME280;10057;59.402;17.866;2023-02-01T00:14:29;98874.97;;;-2.90;67.23
19795;BME280;10057;59.402;17.866;2023-02-01T00:16:55;98874.97;;;-2.90;67.67
19795;BME280;10057;59.402;17.866;2023-02-01T00:19:22;98874.03;;;-2.86;67.35
19795;BME280;10057;59.402;17.866;2023-02-01T00:21:49;98879.97;;;-2.78;67.28
19795;BME280;10057;59.402;17.866;2023-02-01T00:24:16;98873.00;;;-2.74;67.00
19795;BME280;10057;59.402;17.866;2023-02-01T00:26:44;98877.34;;;-2.75;67.15
19795;BME280;10057;59.402;17.866;2023-02-01T00:29:14;98877.41;;;-2.79;67.09
19795;BME280;10057;59.402;17.866;2023-02-01T00:31:42;98876.59;;;-2.84;67.20
19795;BME280;10057;59.402;17.866;2023-02-01T00:34:14;98875.78;;;-2.87;66.95
19795;BME280;10057;59.402;17.866;2023-02-01T00:36:42;98880.09;;;-2.86;67.73
19795;BME280;10057;59.402;17.866;2023-02-01T00:39:10;98875.75;;;-2.85;67.35
19795;BME280;10057;59.402;17.866;2023-02-01T00:41:37;98874.94;;;-2.87;67.69
19795;BME280;10057;59.402;17.866;2023-02-01T00:44:04;98870.63;;;-2.91;67.75
19795;BME280;10057;59.402;17.866;2023-02-01T00:46:31;98865.56;;;-3.00;67.49
19795;BME280;10057;59.402;17.866;2023-02-01T00:48:58;98871.69;;;-3.06;67.84
19795;BME280;10057;59.402;17.866;2023-02-01T00:51:26;98861.34;;;-3.09;67.44
19795;BME280;10057;59.402;17.866;2023-02-01T00:53:53;98856.16;;;-3.09;68.15
19795;BME280;10057;59.402;17.866;2023-02-01T00:56:20;98850.97;;;-3.07;68.35
19795;BME280;10057;59.402;17.866;2023-02-01T00:58:47;98854.31;;;-3.01;68.43
19795;BME280;10057;59.402;17.866;2023-02-01T01:01:17;98855.09;;;-2.93;68.44
19795;BME280;10057;59.402;17.866;2023-02-01T01:03:49;98855.81;;;-2.81;67.82
19795;BME280;10057;59.402;17.866;2023-02-01T01:06:22;98857.44;;;-2.73;68.25
19795;BME280;10057;59.402;17.866;2023-02-01T01:08:54;98851.28;;;-2.67;68.11
19795;BME280;10057;59.402;17.866;2023-02-01T01:11:24;98851.25;;;-2.63;67.78
19795;BME280;10057;59.402;17.866;2023-02-01T01:13:52;98845.16;;;-2.62;67.96
19795;BME280;10057;59.402;17.866;2023-02-01T01:16:20;98843.50;;;-2.66;67.77
19795;BME280;10057;59.402;17.866;2023-02-01T01:18:48;98841.78;;;-2.68;68.23
19795;BME280;10057;59.402;17.866;2023-02-01T01:21:16;98853.94;;;-2.72;67.75
19795;BME280;10057;59.402;17.866;2023-02-01T01:23:44;98857.41;;;-2.71;68.07
19795;BME280;10057;59.402;17.866;2023-02-01T01:26:16;98855.66;;;-2.69;68.41
19795;BME280;10057;59.402;17.866;2023-02-01T01:28:44;98868.53;;;-2.62;68.02
19795;BME280;10057;59.402;17.866;2023-02-01T01:31:12;98863.25;;;-2.57;67.90
19795;BME280;10057;59.402;17.866;2023-02-01T01:33:40;98863.22;;;-2.54;68.23
19795;BME280;10057;59.402;17.866;2023-02-01T01:36:08;98853.63;;;-2.50;67.82
19795;BME280;10057;59.402;17.866;2023-02-01T01:38:39;98857.03;;;-2.45;68.34
19795;BME280;10057;59.402;17.866;2023-02-01T01:41:08;98855.31;;;-2.45;68.33
19795;BME280;10057;59.402;17.866;2023-02-01T01:43:54;98864.00;;;-2.47;68.21
19795;BME280;10057;59.402;17.866;2023-02-01T01:49:04;98864.84;;;-2.47;67.95
19795;BME280;10057;59.402;17.866;2023-02-01T01:51:35;98864.84;;;-2.47;68.02
19795;BME280;10057;59.402;17.866;2023-02-01T01:54:17;98875.19;;;-2.44;68.15
19795;BME280;10057;59.402;17.866;2023-02-01T01:56:52;98876.84;;;-2.38;68.08
19795;BME280;10057;59.402;17.866;2023-02-01T01:59:21;98875.09;;;-2.38;68.54
19795;BME280;10057;59.402;17.866;2023-02-01T02:01:48;98869.81;;;-2.31;68.08
19795;BME280;10057;59.402;17.866;2023-02-01T02:04:15;98867.16;;;-2.27;68.04
19795;BME280;10057;59.402;17.866;2023-02-01T02:06:50;98865.31;;;-2.20;68.92
19795;BME280;10057;59.402;17.866;2023-02-01T02:09:19;98860.13;;;-2.19;67.94
19795;BME280;10057;59.402;17.866;2023-02-01T02:11:46;98848.78;;;-2.15;68.22
19795;BME280;10057;59.402;17.866;2023-02-01T02:14:15;98850.47;;;-2.12;68.59
19795;BME280;10057;59.402;17.866;2023-02-01T02:16:48;98847.75;;;-2.06;68.77
19795;BME280;10057;59.402;17.866;2023-02-01T02:22:10;98857.31;;;-2.06;68.45
19795;BME280;10057;59.402;17.866;2023-02-01T02:33:57;98876.69;;;-2.27;69.00
19795;BME280;10057;59.402;17.866;2023-02-01T02:36:48;98878.31;;;-2.20;68.30
19795;BME280;10057;59.402;17.866;2023-02-01T02:42:14;98880.72;;;-2.09;68.60
19795;BME280;10057;59.402;17.866;2023-02-01T02:45:09;98876.31;;;-2.03;69.03
19795;BME280;10057;59.402;17.866;2023-02-01T02:48:20;98877.97;;;-1.97;69.05
19795;BME280;10057;59.402;17.866;2023-02-01T02:51:07;98874.47;;;-1.95;68.75
19795;BME280;10057;59.402;17.866;2023-02-01T02:54:11;98871.72;;;-1.88;68.43
19795;BME280;10057;59.402;17.866;2023-02-01T02:56:58;98869.19;;;-1.92;68.41
19795;BME280;10057;59.402;17.866;2023-02-01T02:59:46;98870.13;;;-1.96;68.49
19795;BME280;10057;59.402;17.866;2023-02-01T03:02:33;98870.97;;;-1.94;69.27
19795;BME280;10057;59.402;17.866;2023-02-01T03:05:19;98857.94;;;-1.92;68.82
19795;BME280;10057;59.402;17.866;2023-02-01T03:13:15;98866.38;;;-1.79;69.08
19795;BME280;10057;59.402;17.866;2023-02-01T03:18:36;98864.63;;;-1.77;68.69
19795;BME280;10057;59.402;17.866;2023-02-01T03:21:10;98866.28;;;-1.73;69.21
19795;BME280;10057;59.402;17.866;2023-02-01T03:23:38;98860.25;;;-1.75;69.27
19795;BME280;10057;59.402;17.866;2023-02-01T03:26:09;98864.59;;;-1.74;69.32
19795;BME280;10057;59.402;17.866;2023-02-01T03:28:47;98867.19;;;-1.74;69.21
19795;BME280;10057;59.402;17.866;2023-02-01T03:31:15;98866.34;;;-1.76;69.18
19795;BME280;10057;59.402;17.866;2023-02-01T03:33:42;98867.19;;;-1.76;69.16
19795;BME280;10057;59.402;17.866;2023-02-01T03:36:15;98867.09;;;-1.70;69.11
19795;BME280;10057;59.402;17.866;2023-02-01T03:44:26;98862.81;;;-1.72;68.92
19795;BME280;10057;59.402;17.866;2023-02-01T03:47:03;98866.34;;;-1.76;69.30
19795;BME280;10057;59.402;17.866;2023-02-01T03:49:35;98868.84;;;-1.72;69.37
19795;BME280;10057;59.402;17.866;2023-02-01T03:52:05;98873.16;;;-1.69;69.41
19795;BME280;10057;59.402;17.866;2023-02-01T03:54:33;98874.81;;;-1.65;69.32
19795;BME280;10057;59.402;17.866;2023-02-01T03:57:05;98875.59;;;-1.61;69.58
19795;BME280;10057;59.402;17.866;2023-02-01T03:59:39;98880.75;;;-1.57;69.68
19795;BME280;10057;59.402;17.866;2023-02-01T04:02:05;98885.00;;;-1.53;69.23
19795;BME280;10057;59.402;17.866;2023-02-01T04:04:33;98884.09;;;-1.50;69.03
19795;BME280;10057;59.402;17.866;2023-02-01T04:07:00;98880.56;;;-1.48;69.33
19795;BME280;10057;59.402;17.866;2023-02-01T04:09:27;98877.91;;;-1.45;69.36
19795;BME280;10057;59.402;17.866;2023-02-01T04:11:54;98876.19;;;-1.46;69.24
19795;BME280;10057;59.402;17.866;2023-02-01T04:14:20;98874.50;;;-1.47;69.59
19795;BME280;10057;59.402;17.866;2023-02-01T04:16:47;98876.25;;;-1.49;69.20
19795;BME280;10057;59.402;17.866;2023-02-01T04:19:14;98870.25;;;-1.52;69.60
19795;BME280;10057;59.402;17.866;2023-02-01T04:21:41;98878.94;;;-1.53;69.86
19795;BME280;10057;59.402;17.866;2023-02-01T04:24:08;98875.44;;;-1.52;69.73
19795;BME280;10057;59.402;17.866;2023-02-01T04:26:35;98885.75;;;-1.48;70.00
19795;BME280;10057;59.402;17.866;2023-02-01T04:29:02;98892.66;;;-1.44;69.89
19795;BME280;10057;59.402;17.866;2023-02-01T04:31:28;98897.78;;;-1.40;69.63
19795;BME280;10057;59.402;17.866;2023-02-01T04:33:55;98884.72;;;-1.37;69.52
19795;BME280;10057;59.402;17.866;2023-02-01T04:36:24;98884.72;;;-1.37;70.07
19795;BME280;10057;59.402;17.866;2023-02-01T04:38:51;98877.75;;;-1.37;70.10
19795;BME280;10057;59.402;17.866;2023-02-01T04:41:19;98889.88;;;-1.34;70.05
19795;BME280;10057;59.402;17.866;2023-02-01T04:43:47;98898.50;;;-1.32;69.55
19795;BME280;10057;59.402;17.866;2023-02-01T04:46:14;98900.22;;;-1.31;70.22
19795;BME280;10057;59.402;17.866;2023-02-01T04:48:41;98895.91;;;-1.32;70.04
19795;BME280;10057;59.402;17.866;2023-02-01T04:51:08;98898.50;;;-1.32;70.08
19795;BME280;10057;59.402;17.866;2023-02-01T04:53:36;98903.75;;;-1.35;70.00
19795;BME280;10057;59.402;17.866;2023-02-01T04:56:03;98896.84;;;-1.36;69.80
19795;BME280;10057;59.402;17.866;2023-02-01T04:58:30;98897.72;;;-1.36;70.24
19795;BME280;10057;59.402;17.866;2023-02-01T05:00:56;98898.50;;;-1.32;70.34
19795;BME280;10057;59.402;17.866;2023-02-01T05:03:23;98893.19;;;-1.26;69.85
19795;BME280;10057;59.402;17.866;2023-02-01T05:05:50;98893.13;;;-1.23;69.82
19795;BME280;10057;59.402;17.866;2023-02-01T05:08:20;98895.69;;;-1.22;70.02
19795;BME280;10057;59.402;17.866;2023-02-01T05:10:48;98901.75;;;-1.21;69.79
19795;BME280;10057;59.402;17.866;2023-02-01T05:13:15;98905.22;;;-1.19;69.71
19795;BME280;10057;59.402;17.866;2023-02-01T05:16:01;98913.81;;;-1.17;69.71
19795;BME280;10057;59.402;17.866;2023-02-01T05:18:28;98915.63;;;-1.19;69.98
19795;BME280;10057;59.402;17.866;2023-02-01T05:20:55;98914.81;;;-1.23;69.64
19795;BME280;10057;59.402;17.866;2023-02-01T05:23:21;98907.88;;;-1.24;69.61
19795;BME280;10057;59.402;17.866;2023-02-01T05:25:48;98917.38;;;-1.21;69.64
19795;BME280;10057;59.402;17.866;2023-02-01T05:28:15;98912.13;;;-1.18;70.00
19795;BME280;10057;59.402;17.866;2023-02-01T05:30:41;98912.91;;;-1.14;69.89
19795;BME280;10057;59.402;17.866;2023-02-01T05:33:08;98912.00;;;-1.12;69.86
19795;BME280;10057;59.402;17.866;2023-02-01T05:35:35;98925.81;;;-1.10;70.08
19795;BME280;10057;59.402;17.866;2023-02-01T05:38:02;98922.38;;;-1.09;69.83
19795;BME280;10057;59.402;17.866;2023-02-01T05:40:28;98933.63;;;-1.08;69.83
19795;BME280;10057;59.402;17.866;2023-02-01T05:42:55;98930.97;;;-1.07;69.80
19795;BME280;10057;59.402;17.866;2023-02-01T05:45:21;98932.78;;;-1.09;69.46
19795;BME280;10057;59.402;17.866;2023-02-01T05:47:48;98933.59;;;-1.07;70.08
19795;BME280;10057;59.402;17.866;2023-02-01T05:50:16;98924.91;;;-1.07;69.71
19795;BME280;10057;59.402;17.866;2023-02-01T05:52:43;98931.88;;;-1.08;69.82
19795;BME280;10057;59.402;17.866;2023-02-01T05:55:09;98930.13;;;-1.07;70.04
19795;BME280;10057;59.402;17.866;2023-02-01T05:57:36;98929.28;;;-1.08;69.70
19795;BME280;10057;59.402;17.866;2023-02-01T06:00:03;98934.38;;;-1.03;70.00
19795;BME280;10057;59.402;17.866;2023-02-01T06:02:30;98939.56;;;-1.02;69.91
19795;BME280;10057;59.402;17.866;2023-02-01T06:04:57;98941.31;;;-1.02;70.38
19795;BME280;10057;59.402;17.866;2023-02-01T06:07:23;98932.63;;;-1.03;70.27
19795;BME280;10057;59.402;17.866;2023-02-01T06:09:50;98932.56;;;-0.98;70.34
19795;BME280;10057;59.402;17.866;2023-02-01T06:12:17;98934.16;;;-0.92;70.62
19795;BME280;10057;59.402;17.866;2023-02-01T06:14:43;98930.69;;;-0.91;70.70
19795;BME280;10057;59.402;17.866;2023-02-01T06:17:11;98935.84;;;-0.88;70.67
19795;BME280;10057;59.402;17.866;2023-02-01T06:19:38;98935.78;;;-0.85;70.80
19795;BME280;10057;59.402;17.866;2023-02-01T06:22:06;98940.97;;;-0.84;70.83
19795;BME280;10057;59.402;17.866;2023-02-01T06:24:33;98940.91;;;-0.82;70.58
19795;BME280;10057;59.402;17.866;2023-02-01T06:27:00;98952.16;;;-0.80;70.80
19795;BME280;10057;59.402;17.866;2023-02-01T06:29:27;98950.47;;;-0.83;70.65
19795;BME280;10057;59.402;17.866;2023-02-01T06:31:53;98947.13;;;-0.88;70.99
19795;BME280;10057;59.402;17.866;2023-02-01T06:34:20;98949.78;;;-0.92;70.68
19795;BME280;10057;59.402;17.866;2023-02-01T06:36:49;98949.78;;;-0.91;71.02
19795;BME280;10057;59.402;17.866;2023-02-01T06:39:16;98947.06;;;-0.86;71.09
19795;BME280;10057;59.402;17.866;2023-02-01T06:41:47;98947.84;;;-0.81;71.16
19795;BME280;10057;59.402;17.866;2023-02-01T06:44:15;98951.28;;;-0.79;71.03
19795;BME280;10057;59.402;17.866;2023-02-01T06:46:42;98946.91;;;-0.77;70.81
19795;BME280;10057;59.402;17.866;2023-02-01T06:49:09;98951.22;;;-0.75;71.05
19795;BME280;10057;59.402;17.866;2023-02-01T06:51:36;98955.56;;;-0.75;71.05
19795;BME280;10057;59.402;17.866;2023-02-01T06:54:02;98954.66;;;-0.74;70.80
19795;BME280;10057;59.402;17.866;2023-02-01T06:56:29;98955.47;;;-0.72;71.12
19795;BME280;10057;59.402;17.866;2023-02-01T06:58:57;98951.97;;;-0.69;71.22
19795;BME280;10057;59.402;17.866;2023-02-01T07:01:24;98954.53;;;-0.68;71.03
19795;BME280;10057;59.402;17.866;2023-02-01T07:03:51;98945.84;;;-0.68;71.19
19795;BME280;10057;59.402;17.866;2023-02-01T07:06:18;98953.66;;;-0.68;71.55
19795;BME280;10057;59.402;17.866;2023-02-01T07:08:45;98963.16;;;-0.66;71.24
19795;BME280;10057;59.402;17.866;2023-02-01T07:11:13;98955.28;;;-0.63;71.53
19795;BME280;10057;59.402;17.866;2023-02-01T07:13:40;98951.78;;;-0.62;71.55
19795;BME280;10057;59.402;17.866;2023-02-01T07:16:10;98956.94;;;-0.59;71.56
19795;BME280;10057;59.402;17.866;2023-02-01T07:18:37;98951.72;;;-0.57;71.50
19795;BME280;10057;59.402;17.866;2023-02-01T07:21:04;98952.53;;;-0.55;71.65
19795;BME280;10057;59.402;17.866;2023-02-01T07:23:31;98955.13;;;-0.54;71.61
19795;BME280;10057;59.402;17.866;2023-02-01T07:26:00;98961.13;;;-0.52;71.75
19795;BME280;10057;59.402;17.866;2023-02-01T07:28:28;98958.53;;;-0.52;71.75
19795;BME280;10057;59.402;17.866;2023-02-01T07:31:23;98967.19;;;-0.50;71.79
19795;BME280;10057;59.402;17.866;2023-02-01T07:33:49;98968.88;;;-0.49;71.79
19795;BME280;10057;59.402;17.866;2023-02-01T07:36:19;98968.03;;;-0.47;71.87
19795;BME280;10057;59.402;17.866;2023-02-01T07:38:46;98969.72;;;-0.46;71.88
19795;BME280;10057;59.402;17.866;2023-02-01T07:41:18;98976.72;;;-0.49;71.84
19795;BME280;10057;59.402;17.866;2023-02-01T07:43:45;98968.88;;;-0.49;72.26
19795;BME280;10057;59.402;17.866;2023-02-01T07:46:12;98972.41;;;-0.50;72.23
19795;BME280;10057;59.402;17.866;2023-02-01T07:48:41;98971.50;;;-0.49;72.18
19795;BME280;10057;59.402;17.866;2023-02-01T07:51:13;98970.63;;;-0.47;72.45
19795;BME280;10057;59.402;17.866;2023-02-01T07:53:41;98961.88;;;-0.45;72.29
19795;BME280;10057;59.402;17.866;2023-02-01T07:56:16;98966.16;;;-0.42;72.24
19795;BME280;10057;59.402;17.866;2023-02-01T07:58:43;98966.94;;;-0.37;72.23
19795;BME280;10057;59.402;17.866;2023-02-01T08:01:24;98970.34;;;-0.34;72.26
19795;BME280;10057;59.402;17.866;2023-02-01T08:06:18;98976.25;;;-0.26;72.29
19795;BME280;10057;59.402;17.866;2023-02-01T08:08:47;98977.94;;;-0.23;72.52
19795;BME280;10057;59.402;17.866;2023-02-01T08:11:14;98980.50;;;-0.21;72.37
19795;BME280;10057;59.402;17.866;2023-02-01T08:13:42;98981.28;;;-0.18;72.44
19795;BME280;10057;59.402;17.866;2023-02-01T08:16:11;98978.59;;;-0.13;72.60
19795;BME280;10057;59.402;17.866;2023-02-01T08:18:38;98981.16;;;-0.12;72.76
19795;BME280;10057;59.402;17.866;2023-02-01T08:21:19;98989.81;;;-0.10;72.44
19795;BME280;10057;59.402;17.866;2023-02-01T08:23:46;98983.66;;;-0.07;72.43
19795;BME280;10057;59.402;17.866;2023-02-01T08:26:23;98991.38;;;-0.03;72.53
19795;BME280;10057;59.402;17.866;2023-02-01T08:28:53;98990.47;;;0.00;72.60
19795;BME280;10057;59.402;17.866;2023-02-01T08:31:22;98983.44;;;0.02;72.60
19795;BME280;10057;59.402;17.866;2023-02-01T08:34:00;98996.47;;;0.04;72.84
19795;BME280;10057;59.402;17.866;2023-02-01T08:36:29;98994.66;;;0.06;72.83
19795;BME280;10057;59.402;17.866;2023-02-01T08:38:57;98984.25;;;0.06;72.56
19795;BME280;10057;59.402;17.866;2023-02-01T08:41:26;98988.56;;;0.07;72.75
19795;BME280;10057;59.402;17.866;2023-02-01T08:43:56;98981.56;;;0.09;72.69
19795;BME280;10057;59.402;17.866;2023-02-01T08:46:23;98991.09;;;0.10;72.98
19795;BME280;10057;59.402;17.866;2023-02-01T08:48:50;98982.47;;;0.08;72.83
19795;BME280;10057;59.402;17.866;2023-02-01T08:51:19;98976.31;;;0.10;72.96
19795;BME280;10057;59.402;17.866;2023-02-01T08:53:46;98991.06;;;0.11;73.62
19795;BME280;10057;59.402;17.866;2023-02-01T08:56:16;98978.91;;;0.12;73.18
19795;BME280;10057;59.402;17.866;2023-02-01T08:58:43;98993.63;;;0.13;73.30
19795;BME280;10057;59.402;17.866;2023-02-01T09:01:15;98991.03;;;0.13;72.98
19795;BME280;10057;59.402;17.866;2023-02-01T09:03:43;98983.13;;;0.17;73.05
19795;BME280;10057;59.402;17.866;2023-02-01T09:06:12;98991.75;;;0.19;72.95
19795;BME280;10057;59.402;17.866;2023-02-01T09:08:40;98989.94;;;0.23;73.08
19795;BME280;10057;59.402;17.866;2023-02-01T09:11:14;98995.13;;;0.25;72.99
19795;BME280;10057;59.402;17.866;2023-02-01T09:13:41;98994.19;;;0.27;72.90
19795;BME280;10057;59.402;17.866;2023-02-01T09:16:08;98996.78;;;0.27;73.16
19795;BME280;10057;59.402;17.866;2023-02-01T09:18:35;99000.19;;;0.31;73.17
19795;BME280;10057;59.402;17.866;2023-02-01T09:21:07;98996.69;;;0.32;73.20
19795;BME280;10057;59.402;17.866;2023-02-01T09:23:34;98994.88;;;0.34;73.31
19795;BME280;10057;59.402;17.866;2023-02-01T09:26:03;99001.88;;;0.33;73.13
19795;BME280;10057;59.402;17.866;2023-02-01T09:28:30;99007.06;;;0.35;73.43
19795;BME280;10057;59.402;17.866;2023-02-01T09:30:58;99008.69;;;0.39;73.37
19795;BME280;10057;59.402;17.866;2023-02-01T09:33:26;99008.63;;;0.42;73.52
19795;BME280;10057;59.402;17.866;2023-02-01T09:35:57;99012.91;;;0.44;73.58
19795;BME280;10057;59.402;17.866;2023-02-01T09:38:25;99006.81;;;0.44;73.52
19795;BME280;10057;59.402;17.866;2023-02-01T09:40:54;99009.34;;;0.49;73.74
19795;BME280;10057;59.402;17.866;2023-02-01T09:43:35;99017.06;;;0.53;73.35
19795;BME280;10057;59.402;17.866;2023-02-01T09:48:45;99018.66;;;0.59;73.35
19795;BME280;10057;59.402;17.866;2023-02-01T09:51:19;99019.47;;;0.61;73.55
19795;BME280;10057;59.402;17.866;2023-02-01T09:56:41;99018.63;;;0.60;73.63
19795;BME280;10057;59.402;17.866;2023-02-01T09:59:43;99016.84;;;0.62;73.59
19795;BME280;10057;59.402;17.866;2023-02-01T10:02:16;99026.31;;;0.65;74.10
19795;BME280;10057;59.402;17.866;2023-02-01T10:04:44;99017.56;;;0.69;73.68
19795;BME280;10057;59.402;17.866;2023-02-01T10:07:35;99021.75;;;0.75;74.05
19795;BME280;10057;59.402;17.866;2023-02-01T10:21:40;99017.22;;;0.83;74.12
19795;BME280;10057;59.402;17.866;2023-02-01T10:24:39;99016.22;;;0.87;74.17
19795;BME280;10057;59.402;17.866;2023-02-01T10:27:19;99023.88;;;0.94;73.77
19795;BME280;10057;59.402;17.866;2023-02-01T10:30:14;99021.19;;;0.98;73.98
19795;BME280;10057;59.402;17.866;2023-02-01T10:32:42;99027.22;;;1.00;73.82
19795;BME280;10057;59.402;17.866;2023-02-01T10:35:23;99031.56;;;0.99;73.75
19795;BME280;10057;59.402;17.866;2023-02-01T10:37:52;99037.69;;;0.98;73.92
19795;BME280;10057;59.402;17.866;2023-02-01T10:40:24;99036.84;;;0.98;73.77
19795;BME280;10057;59.402;17.866;2023-02-01T10:42:57;99039.47;;;0.98;73.45
19795;BME280;10057;59.402;17.866;2023-02-01T10:45:27;99037.69;;;1.00;73.71
19795;BME280;10057;59.402;17.866;2023-02-01T10:47:57;99042.00;;;1.01;74.14
19795;BME280;10057;59.402;17.866;2023-02-01T10:50:34;99036.72;;;1.02;73.68
19795;BME280;10057;59.402;17.866;2023-02-01T10:53:14;99036.72;;;1.02;74.17
19795;BME280;10057;59.402;17.866;2023-02-01T10:55:50;99044.53;;;1.04;73.83
19795;BME280;10057;59.402;17.866;2023-02-01T10:58:29;99043.63;;;1.05;74.21
19795;BME280;10057;59.402;17.866;2023-02-01T11:00:59;99039.25;;;1.05;74.12
19795;BME280;10057;59.402;17.866;2023-02-01T11:03:56;99040.09;;;1.06;73.98
19795;BME280;10057;59.402;17.866;2023-02-01T11:06:31;99040.94;;;1.08;74.17
19795;BME280;10057;59.402;17.866;2023-02-01T11:09:18;99045.25;;;1.09;74.20
19795;BME280;10057;59.402;17.866;2023-02-01T11:16:58;99053.06;;;1.10;73.84
19795;BME280;10057;59.402;17.866;2023-02-01T11:19:27;99049.63;;;1.08;74.13
19795;BME280;10057;59.402;17.866;2023-02-01T11:21:57;99052.31;;;1.05;73.90
19795;BME280;10057;59.402;17.866;2023-02-01T11:24:28;99057.53;;;1.05;73.86
19795;BME280;10057;59.402;17.866;2023-02-01T11:26:59;99060.16;;;1.05;73.88
19795;BME280;10057;59.402;17.866;2023-02-01T11:29:34;99065.44;;;1.02;74.24
19795;BME280;10057;59.402;17.866;2023-02-01T11:32:02;99069.81;;;1.02;74.29
19795;BME280;10057;59.402;17.866;2023-02-01T11:34:43;99065.50;;;1.01;74.02
19795;BME280;10057;59.402;17.866;2023-02-01T11:37:23;99060.34;;;0.98;74.20
19795;BME280;10057;59.402;17.866;2023-02-01T11:40:00;99058.66;;;0.97;74.35
19795;BME280;10057;59.402;17.866;2023-02-01T11:42:28;99061.25;;;0.97;74.19
19795;BME280;10057;59.402;17.866;2023-02-01T11:45:20;99059.50;;;0.95;74.15
19795;BME280;10057;59.402;17.866;2023-02-01T11:47:52;99071.66;;;0.98;74.25
19795;BME280;10057;59.402;17.866;2023-02-01T11:50:28;99061.25;;;0.97;74.39
19795;BME280;10057;59.402;17.866;2023-02-01T12:01:42;99068.06;;;1.02;74.36
19795;BME280;10057;59.402;17.866;2023-02-01T12:07:22;99071.22;;;1.16;74.63
19795;BME280;10057;59.402;17.866;2023-02-01T12:10:00;99081.47;;;1.23;74.89
19795;BME280;10057;59.402;17.866;2023-02-01T12:12:41;99071.72;;;1.29;74.96
19795;BME280;10057;59.402;17.866;2023-02-01T12:21:17;99081.94;;;1.38;74.50
19795;BME280;10057;59.402;17.866;2023-02-01T12:37:23;99094.09;;;1.39;74.36
19795;BME280;10057;59.402;17.866;2023-02-01T12:42:48;99086.25;;;1.41;74.80
19795;BME280;10057;59.402;17.866;2023-02-01T12:45:27;99092.28;;;1.43;74.53
19795;BME280;10057;59.402;17.866;2023-02-01T12:50:41;99100.88;;;1.48;74.45
19795;BME280;10057;59.402;17.866;2023-02-01T12:53:25;99105.19;;;1.49;74.15
19795;BME280;10057;59.402;17.866;2023-02-01T12:56:01;99115.69;;;1.48;74.28
19795;BME280;10057;59.402;17.866;2023-02-01T12:58:43;99113.06;;;1.48;74.17
19795;BME280;10057;59.402;17.866;2023-02-01T13:01:22;99112.22;;;1.47;74.22
19795;BME280;10057;59.402;17.866;2023-02-01T13:03:57;99114.84;;;1.46;74.42
19795;BME280;10057;59.402;17.866;2023-02-01T13:06:31;99121.88;;;1.43;74.36
19795;BME280;10057;59.402;17.866;2023-02-01T13:11:36;99108.00;;;1.41;74.45
19795;BME280;10057;59.402;17.866;2023-02-01T13:16:39;99117.63;;;1.39;74.23
19795;BME280;10057;59.402;17.866;2023-02-01T13:19:20;99126.31;;;1.40;74.19
19795;BME280;10057;59.402;17.866;2023-02-01T13:21:55;99128.13;;;1.38;74.46
19795;BME280;10057;59.402;17.866;2023-02-01T13:27:16;99136.91;;;1.35;74.34
19795;BME280;10057;59.402;17.866;2023-02-01T13:30:00;99137.88;;;1.31;74.52
19795;BME280;10057;59.402;17.866;2023-02-01T13:35:54;99152.72;;;1.29;74.39
19795;BME280;10057;59.402;17.866;2023-02-01T13:44:40;99157.41;;;1.16;74.48
19795;BME280;10057;59.402;17.866;2023-02-01T13:47:38;99165.34;;;1.12;74.40
19795;BME280;10057;59.402;17.866;2023-02-01T13:52:44;99169.97;;;1.01;74.39
19795;BME280;10057;59.402;17.866;2023-02-01T13:55:27;99170.94;;;0.97;74.84
19795;BME280;10057;59.402;17.866;2023-02-01T13:58:14;99170.94;;;0.95;74.67
19795;BME280;10057;59.402;17.866;2023-02-01T14:00:42;99175.38;;;0.91;74.37
19795;BME280;10057;59.402;17.866;2023-02-01T14:03:16;99178.13;;;0.85;74.58
19795;BME280;10057;59.402;17.866;2023-02-01T14:08:21;99187.16;;;0.72;74.41
19795;BME280;10057;59.402;17.866;2023-02-01T14:10:57;99188.09;;;0.68;74.47
19795;BME280;10057;59.402;17.866;2023-02-01T14:13:38;99196.81;;;0.67;74.36
19795;BME280;10057;59.402;17.866;2023-02-01T14:21:35;99210.88;;;0.60;74.50
19795;BME280;10057;59.402;17.866;2023-02-01T14:24:23;99202.28;;;0.55;74.44
19795;BME280;10057;59.402;17.866;2023-02-01T14:26:52;99216.28;;;0.52;74.50
19795;BME280;10057;59.402;17.866;2023-02-01T14:29:32;99218.09;;;0.49;74.59
19795;BME280;10057;59.402;17.866;2023-02-01T14:32:06;99221.56;;;0.47;74.69
19795;BME280;10057;59.402;17.866;2023-02-01T14:34:48;99222.47;;;0.48;74.59
19795;BME280;10057;59.402;17.866;2023-02-01T14:40:16;99230.28;;;0.46;74.64
19795;BME280;10057;59.402;17.866;2023-02-01T14:42:48;99222.47;;;0.46;74.68
19795;BME280;10057;59.402;17.866;2023-02-01T14:47:47;99232.06;;;0.46;74.66
19795;BME280;10057;59.402;17.866;2023-02-01T14:55:49;99235.41;;;0.51;74.46
19795;BME280;10057;59.402;17.866;2023-02-01T14:58:38;99236.25;;;0.53;74.39
19795;BME280;10057;59.402;17.866;2023-02-01T15:09:16;99249.25;;;0.55;74.24
19795;BME280;10057;59.402;17.866;2023-02-01T15:14:33;99263.31;;;0.47;74.32
19795;BME280;10057;59.402;17.866;2023-02-01T15:17:00;99258.16;;;0.44;74.42
19795;BME280;10057;59.402;17.866;2023-02-01T15:19:29;99260.75;;;0.44;74.27
19795;BME280;10057;59.402;17.866;2023-02-01T15:21:58;99277.31;;;0.43;74.44
19795;BME280;10057;59.402;17.866;2023-02-01T15:24:29;99276.41;;;0.44;74.15
19795;BME280;10057;59.402;17.866;2023-02-01T15:27:03;99281.69;;;0.43;74.40
19795;BME280;10057;59.402;17.866;2023-02-01T15:29:31;99286.94;;;0.41;74.26
19795;BME280;10057;59.402;17.866;2023-02-01T15:32:00;99280.88;;;0.39;74.42
19795;BME280;10057;59.402;17.866;2023-02-01T15:34:47;99289.56;;;0.40;74.23
19795;BME280;10057;59.402;17.866;2023-02-01T15:37:15;99290.50;;;0.36;74.36
19795;BME280;10057;59.402;17.866;2023-02-01T15:40:18;99290.56;;;0.33;74.27
19795;BME280;10057;59.402;17.866;2023-02-01T15:42:52;99292.38;;;0.29;74.28